Canada's Largest FIR

CZEG Edmonton


  Upcoming Events

Northern Lights Tuesdays  December 6, 2022 23:59z
Cleared to Land '23  January 8, 2023 23:59z

  Online Controllers

No controllers online.

  View Our Airspace

  Weather

CYYC - Calgary International Airport   LIFR
CYYC 061400Z 12004KT 2SM -SN VV037 M23/M26 A2989 RMK SN8 SLP223

CYEG - Edmonton International Airport   VFR
CYEG 061400Z 19003KT 15SM IC FEW038 M35/M38 A3007 RMK SC1 SC TR SLP273

CYXY - Whitehorse / Erik Nielsen International Airport   IFR
CYXY 061400Z 18014KT 6SM -SN OVC005 M11/M13 A2959 RMK ST8 CIG RAG SLP082

CYZF - Yellowknife International Airport   VFR
CYZF 061400Z 29007KT 15SM SKC M37/M41 A3011 RMK SLP239

CYMM - Fort McMurray Airport   VFR
CYMM 061400Z AUTO 22006KT 9SM CLR M35/M38 A3020 RMK SLP283

CYQF - Red Deer Regional Airport   VFR
CYQF 061401Z AUTO 08004KT 9SM BKN071 OVC086 M25/M29 A2997 RMK SLP252

CZVL - Edmonton / Villeneuve Airport   VFR
CZVL 061400Z AUTO VRB02KT 9SM CLR M34/M37 A3009 RMK SLP273

CYBW - Calgary / Springbank Airport   VFR
CYBW 061404Z AUTO 14005KT 6SM -SN OVC050 M23/M26 A2983 RMK SLP223

CYOD - CFB Cold Lake   VFR
CYOD 061400Z 27003KT 15SM SKC M35/M37 A3012 RMK DENSITY ALT -5031FT SLP271